createdAt,value
2019-02-04T00:00:52.716Z,44.17
2019-02-04T00:05:57.790Z,41.00
2019-02-04T00:11:06.388Z,38.87
2019-02-04T00:16:13.595Z,47.20
2019-02-04T00:21:21.203Z,41.33
2019-02-04T00:26:27.884Z,39.33
2019-02-04T00:31:38.059Z,39.00
2019-02-04T00:36:43.656Z,42.00
2019-02-04T00:41:48.896Z,45.90
2019-02-04T00:46:55.569Z,42.97
2019-02-04T00:52:01.783Z,42.33
2019-02-04T00:57:06.992Z,40.00
2019-02-04T01:02:12.494Z,40.80
2019-02-04T01:07:17.539Z,43.07
2019-02-04T01:12:22.809Z,46.10
2019-02-04T01:17:29.100Z,50.17
2019-02-04T01:22:34.225Z,43.07
2019-02-04T01:27:39.328Z,41.90
2019-02-04T01:32:44.912Z,39.77
2019-02-04T01:37:50.067Z,39.70
2019-02-04T01:42:55.788Z,43.27
2019-02-04T01:48:00.974Z,46.23
2019-02-04T01:53:06.197Z,38.77
2019-02-04T01:58:11.856Z,36.13
2019-02-04T02:03:17.510Z,41.80
2019-02-04T02:08:22.754Z,41.83
2019-02-04T02:13:27.828Z,42.47
2019-02-04T02:18:32.912Z,41.70
2019-02-04T02:23:38.204Z,41.10
2019-02-04T02:28:43.420Z,43.57
2019-02-04T02:33:48.574Z,50.50
2019-02-04T02:38:53.758Z,43.93
2019-02-04T02:43:59.403Z,40.30
2019-02-04T02:49:05.065Z,46.23
2019-02-04T02:54:10.188Z,44.07
2019-02-04T02:59:15.441Z,44.40
2019-02-04T03:04:20.860Z,41.57
2019-02-04T03:09:26.718Z,46.20
2019-02-04T03:14:58.144Z,50.67
2019-02-04T03:20:03.392Z,42.00
2019-02-04T03:25:10.272Z,48.67
2019-02-04T03:30:19.523Z,45.60
2019-02-04T03:35:24.964Z,47.77
2019-02-04T03:40:32.104Z,42.03
2019-02-04T03:45:37.246Z,46.83
2019-02-04T03:50:42.708Z,48.90
2019-02-04T03:55:47.820Z,47.30
2019-02-04T04:00:53.174Z,44.63
2019-02-04T04:05:58.255Z,53.17
2019-02-04T04:11:03.427Z,51.83
2019-02-04T04:16:08.821Z,57.07
2019-02-04T04:21:14.585Z,48.60
2019-02-04T04:26:20.004Z,48.70
2019-02-04T04:31:25.204Z,52.87
2019-02-04T04:36:30.335Z,49.73
2019-02-04T04:41:35.462Z,50.70
2019-02-04T04:46:40.594Z,42.63
2019-02-04T04:51:45.646Z,46.80
2019-02-04T04:56:51.723Z,43.47
2019-02-04T05:01:56.844Z,44.93
2019-02-04T05:07:01.886Z,46.40
2019-02-04T05:12:12.026Z,47.37
2019-02-04T05:17:17.536Z,47.30
2019-02-04T05:22:22.808Z,47.17
2019-02-04T05:27:28.094Z,46.27
2019-02-04T05:32:33.468Z,50.13
2019-02-04T05:37:38.775Z,53.87
2019-02-04T05:42:44.144Z,47.57
2019-02-04T05:47:49.318Z,50.07
2019-02-04T05:52:54.880Z,46.67
2019-02-04T05:58:00.473Z,46.53
2019-02-04T06:03:07.596Z,50.17
2019-02-04T06:08:12.698Z,49.63
2019-02-04T06:13:18.106Z,49.97
2019-02-04T06:18:24.449Z,43.80
2019-02-04T06:23:29.655Z,45.30
2019-02-04T06:28:34.712Z,48.67
2019-02-04T06:33:39.746Z,49.40
2019-02-04T06:38:45.133Z,44.77
2019-02-04T06:43:50.608Z,47.77
2019-02-04T06:48:56.694Z,45.83
2019-02-04T06:54:02.913Z,52.23
2019-02-04T06:59:08.125Z,44.00
2019-02-04T07:04:13.504Z,51.37
2019-02-04T07:09:18.773Z,53.17
2019-02-04T07:14:23.969Z,49.23
2019-02-04T07:19:29.124Z,45.73
2019-02-04T07:24:42.857Z,48.03
2019-02-04T07:29:42.435Z,50.17
2019-02-04T07:34:47.618Z,51.50
2019-02-04T07:39:53.561Z,52.83
2019-02-04T07:44:58.936Z,51.00
2019-02-04T07:50:04.411Z,42.90
2019-02-04T07:55:09.913Z,41.57
2019-02-04T08:00:18.052Z,41.37
2019-02-04T08:05:23.223Z,39.53
2019-02-04T08:10:28.513Z,41.13
2019-02-04T08:15:36.279Z,43.57
2019-02-04T08:20:41.626Z,39.03
2019-02-04T08:25:47.000Z,43.30
2019-02-04T08:30:52.591Z,35.63
2019-02-04T08:35:57.747Z,38.23
2019-02-04T08:41:03.432Z,40.10
2019-02-04T08:46:08.653Z,32.70
2019-02-04T08:51:14.382Z,33.73
2019-02-04T08:56:19.921Z,36.37
2019-02-04T09:01:25.897Z,45.07
2019-02-04T09:06:31.363Z,47.00
2019-02-04T09:11:36.642Z,40.00
2019-02-04T09:16:42.917Z,34.83
2019-02-04T09:21:48.218Z,34.57
2019-02-04T09:26:53.490Z,34.20
2019-02-04T09:31:59.555Z,34.07
2019-02-04T09:37:05.279Z,35.47
2019-02-04T09:42:10.677Z,28.03
2019-02-04T09:47:16.591Z,31.23
2019-02-04T09:52:22.717Z,33.80
2019-02-04T09:57:28.121Z,35.87
2019-02-04T10:02:33.479Z,29.87
2019-02-04T10:07:38.709Z,32.00
2019-02-04T10:12:44.298Z,31.47
2019-02-04T10:17:49.423Z,28.73
2019-02-04T10:23:01.061Z,27.27
2019-02-04T10:28:08.521Z,26.53
2019-02-04T10:33:13.874Z,25.53
2019-02-04T10:38:19.252Z,26.40
2019-02-04T10:43:24.517Z,29.03
2019-02-04T10:48:30.069Z,30.57
2019-02-04T10:53:35.251Z,32.90
2019-02-04T10:58:41.141Z,27.47
2019-02-04T11:03:46.382Z,23.23
2019-02-04T11:08:52.163Z,23.23
2019-02-04T11:13:57.760Z,20.83
2019-02-04T11:19:02.960Z,20.57
2019-02-04T11:24:08.384Z,20.93
2019-02-04T11:29:13.915Z,19.47
2019-02-04T11:34:19.822Z,18.40
2019-02-04T11:39:25.347Z,21.52
2019-02-04T11:44:30.750Z,19.60
2019-02-04T11:49:36.544Z,22.82
2019-02-04T11:54:42.106Z,18.17
2019-02-04T11:59:48.145Z,21.80
2019-02-04T12:04:53.386Z,21.10
2019-02-04T12:09:58.868Z,19.30
2019-02-04T12:15:04.425Z,21.53
2019-02-04T12:20:11.415Z,20.93
2019-02-04T12:25:19.155Z,19.07
2019-02-04T12:30:31.080Z,21.03
2019-02-04T12:35:36.632Z,20.27
2019-02-04T12:40:42.883Z,22.60
2019-02-04T12:45:49.090Z,19.90
2019-02-04T12:50:55.021Z,18.20
2019-02-04T12:56:01.251Z,21.33
2019-02-04T13:01:08.148Z,18.87
2019-02-04T13:06:14.603Z,19.60
2019-02-04T13:11:20.160Z,19.23
2019-02-04T13:16:31.833Z,23.37
2019-02-04T13:21:45.061Z,25.00
2019-02-04T13:26:47.028Z,19.70
2019-02-04T13:31:55.449Z,19.10
2019-02-04T13:37:01.061Z,18.47
2019-02-04T13:42:08.051Z,19.80
2019-02-04T13:47:13.323Z,25.70
2019-02-04T13:52:19.595Z,24.93
2019-02-04T13:57:24.859Z,22.53
2019-02-04T14:02:30.095Z,20.93
2019-02-04T14:07:36.381Z,20.20
2019-02-04T14:12:45.498Z,22.47
2019-02-04T14:17:50.168Z,22.50
2019-02-04T14:22:56.243Z,22.43
2019-02-04T14:28:03.902Z,22.33
2019-02-04T14:33:09.002Z,19.73
2019-02-04T14:38:15.499Z,21.73
2019-02-04T14:43:29.194Z,22.83
2019-02-04T14:49:28.065Z,23.20
2019-02-04T14:55:14.759Z,22.67
2019-02-04T15:00:50.479Z,21.63
2019-02-04T15:06:16.275Z,22.20
2019-02-04T15:11:47.873Z,22.80
2019-02-04T15:17:19.169Z,23.53
2019-02-04T15:22:44.502Z,23.63
2019-02-04T15:28:20.853Z,26.77
2019-02-04T15:34:07.528Z,25.90
2019-02-04T15:40:15.183Z,24.30
2019-02-04T15:45:42.221Z,29.70
2019-02-04T15:51:11.953Z,28.80
2019-02-04T15:56:17.754Z,28.53
2019-02-04T16:01:23.298Z,27.67
2019-02-04T16:06:28.858Z,25.63
2019-02-04T16:11:34.305Z,30.77
2019-02-04T16:16:40.509Z,29.13
2019-02-04T16:21:47.384Z,36.17
2019-02-04T16:26:53.773Z,29.03
2019-02-04T16:31:59.218Z,29.63
2019-02-04T16:37:04.696Z,29.83
2019-02-04T16:42:11.601Z,32.93
2019-02-04T16:47:17.329Z,32.93
2019-02-04T16:52:22.565Z,30.30
2019-02-04T16:57:28.469Z,32.73
2019-02-04T17:02:35.441Z,31.83
2019-02-04T17:07:41.461Z,35.53
2019-02-04T17:12:46.995Z,34.33
2019-02-04T17:17:52.454Z,35.10
2019-02-04T17:22:58.509Z,33.07
2019-02-04T17:28:04.121Z,32.97
2019-02-04T17:33:09.600Z,32.93
2019-02-04T17:38:15.015Z,30.60
2019-02-04T17:43:21.147Z,30.97
2019-02-04T17:48:26.533Z,31.07
2019-02-04T17:53:34.374Z,33.20
2019-02-04T17:58:39.861Z,35.93
2019-02-04T18:03:45.092Z,32.70
2019-02-04T18:08:50.550Z,44.83
2019-02-04T18:19:15.127Z,33.07
2019-02-04T18:24:20.691Z,30.37
2019-02-04T18:29:25.852Z,33.97
2019-02-04T18:34:31.223Z,34.07
2019-02-04T18:39:37.889Z,32.93
2019-02-04T18:44:43.791Z,29.50
2019-02-04T18:49:49.261Z,25.97
2019-02-04T18:54:54.822Z,33.67
2019-02-04T19:00:00.517Z,26.93
2019-02-04T19:05:07.979Z,37.53
2019-02-04T19:10:16.007Z,31.43
2019-02-04T19:15:22.368Z,40.03
2019-02-04T19:20:27.747Z,41.03
2019-02-04T19:25:33.107Z,37.77
2019-02-04T19:30:44.923Z,38.83
2019-02-04T19:35:50.052Z,38.40
2019-02-04T19:40:56.254Z,34.83
2019-02-04T19:46:02.216Z,34.73
2019-02-04T19:51:07.394Z,36.53
2019-02-04T19:56:13.047Z,35.63
2019-02-04T20:01:19.481Z,35.30
2019-02-04T20:06:25.600Z,34.23
2019-02-04T20:11:31.297Z,35.60
2019-02-04T20:16:39.420Z,35.00
2019-02-04T20:21:56.382Z,37.70
2019-02-04T20:27:01.890Z,35.50
2019-02-04T20:32:12.157Z,31.60
2019-02-04T20:37:24.626Z,32.97
2019-02-04T20:42:29.898Z,35.17
2019-02-04T20:47:35.009Z,33.60
2019-02-04T20:52:40.239Z,35.90
2019-02-04T20:57:47.001Z,36.70
2019-02-04T21:02:52.571Z,39.10
2019-02-04T21:07:58.070Z,34.43
2019-02-04T21:13:03.527Z,31.53
2019-02-04T21:18:09.442Z,32.40
2019-02-04T21:23:14.763Z,35.00
2019-02-04T21:28:19.966Z,33.17
2019-02-04T21:33:31.024Z,32.80
2019-02-04T21:38:46.522Z,53.10
2019-02-04T21:43:55.961Z,37.80
2019-02-04T21:49:01.297Z,40.50
2019-02-04T21:54:06.776Z,34.07
2019-02-04T21:59:12.529Z,36.90
2019-02-04T22:04:22.280Z,40.77
2019-02-04T22:09:29.074Z,37.57
2019-02-04T22:14:34.522Z,34.43
2019-02-04T22:19:40.405Z,37.13
2019-02-04T22:24:45.567Z,36.73
2019-02-04T22:29:50.715Z,37.43
2019-02-04T22:34:56.247Z,37.67
2019-02-04T22:40:02.564Z,36.67
2019-02-04T22:45:10.241Z,38.93
2019-02-04T22:50:18.447Z,36.40
2019-02-04T22:55:31.632Z,40.60
2019-02-04T23:01:09.313Z,39.83
2019-02-04T23:06:15.140Z,38.33
2019-02-04T23:11:20.637Z,41.60
2019-02-04T23:16:26.140Z,39.47
2019-02-04T23:21:32.733Z,40.63
2019-02-04T23:26:38.370Z,38.67
2019-02-04T23:31:43.844Z,40.23
2019-02-04T23:36:49.577Z,37.37
2019-02-04T23:41:58.261Z,36.20
2019-02-04T23:47:01.951Z,35.40
2019-02-04T23:52:07.420Z,36.90
2019-02-04T23:57:13.894Z,42.07
